sensor_id;sensor_type;location;lat;lon;timestamp;P1;durP1;ratioP1;P2;durP2;ratioP2
46318;SDS011;32042;50.916;2.926;2023-05-10T00:00:43;20.63;;;14.47;;
46318;SDS011;32042;50.916;2.926;2023-05-10T00:03:09;24.93;;;15.03;;
46318;SDS011;32042;50.916;2.926;2023-05-10T00:05:35;22.30;;;15.27;;
46318;SDS011;32042;50.916;2.926;2023-05-10T00:08:01;25.17;;;15.40;;
46318;SDS011;32042;50.916;2.926;2023-05-10T00:10:28;21.77;;;15.40;;
46318;SDS011;32042;50.916;2.926;2023-05-10T00:12:54;22.77;;;16.07;;
46318;SDS011;32042;50.916;2.926;2023-05-10T00:15:19;27.87;;;15.07;;
46318;SDS011;32042;50.916;2.926;2023-05-10T00:17:45;25.73;;;15.37;;
46318;SDS011;32042;50.916;2.926;2023-05-10T00:20:11;22.03;;;14.07;;
46318;SDS011;32042;50.916;2.926;2023-05-10T00:22:37;22.53;;;14.00;;
46318;SDS011;32042;50.916;2.926;2023-05-10T00:25:02;23.67;;;14.17;;
46318;SDS011;32042;50.916;2.926;2023-05-10T00:27:28;19.70;;;14.90;;
46318;SDS011;32042;50.916;2.926;2023-05-10T00:29:54;25.70;;;15.03;;
46318;SDS011;32042;50.916;2.926;2023-05-10T00:32:20;25.27;;;15.03;;
46318;SDS011;32042;50.916;2.926;2023-05-10T00:34:46;25.57;;;14.23;;
46318;SDS011;32042;50.916;2.926;2023-05-10T00:37:11;19.03;;;13.47;;
46318;SDS011;32042;50.916;2.926;2023-05-10T00:39:37;20.03;;;13.07;;
46318;SDS011;32042;50.916;2.926;2023-05-10T00:42:03;19.17;;;13.73;;
46318;SDS011;32042;50.916;2.926;2023-05-10T00:44:29;17.50;;;12.13;;
46318;SDS011;32042;50.916;2.926;2023-05-10T00:46:56;17.53;;;11.90;;
46318;SDS011;32042;50.916;2.926;2023-05-10T00:49:22;17.07;;;11.50;;
46318;SDS011;32042;50.916;2.926;2023-05-10T00:51:48;17.23;;;11.70;;
46318;SDS011;32042;50.916;2.926;2023-05-10T00:54:14;15.27;;;11.33;;
46318;SDS011;32042;50.916;2.926;2023-05-10T00:56:41;15.87;;;10.77;;
46318;SDS011;32042;50.916;2.926;2023-05-10T00:59:08;16.90;;;11.90;;
46318;SDS011;32042;50.916;2.926;2023-05-10T01:01:35;18.90;;;12.37;;
46318;SDS011;32042;50.916;2.926;2023-05-10T01:04:01;15.90;;;10.77;;
46318;SDS011;32042;50.916;2.926;2023-05-10T01:06:28;17.70;;;11.87;;
46318;SDS011;32042;50.916;2.926;2023-05-10T01:08:53;17.63;;;12.57;;
46318;SDS011;32042;50.916;2.926;2023-05-10T01:11:20;20.40;;;12.47;;
46318;SDS011;32042;50.916;2.926;2023-05-10T01:13:47;22.50;;;14.03;;
46318;SDS011;32042;50.916;2.926;2023-05-10T01:16:19;19.27;;;13.87;;
46318;SDS011;32042;50.916;2.926;2023-05-10T01:18:45;18.30;;;14.17;;
46318;SDS011;32042;50.916;2.926;2023-05-10T01:29:06;27.17;;;15.87;;
46318;SDS011;32042;50.916;2.926;2023-05-10T01:34:40;28.67;;;17.03;;
46318;SDS011;32042;50.916;2.926;2023-05-10T01:37:13;28.87;;;17.13;;
46318;SDS011;32042;50.916;2.926;2023-05-10T01:39:46;25.60;;;17.50;;
46318;SDS011;32042;50.916;2.926;2023-05-10T01:42:21;24.33;;;16.37;;
46318;SDS011;32042;50.916;2.926;2023-05-10T01:44:55;24.10;;;17.07;;
46318;SDS011;32042;50.916;2.926;2023-05-10T01:47:44;27.20;;;16.97;;
46318;SDS011;32042;50.916;2.926;2023-05-10T01:50:17;28.47;;;18.27;;
46318;SDS011;32042;50.916;2.926;2023-05-10T01:52:47;27.80;;;17.17;;
46318;SDS011;32042;50.916;2.926;2023-05-10T01:55:20;24.27;;;16.83;;
46318;SDS011;32042;50.916;2.926;2023-05-10T01:57:48;27.80;;;17.47;;
46318;SDS011;32042;50.916;2.926;2023-05-10T02:00:23;27.00;;;17.57;;
46318;SDS011;32042;50.916;2.926;2023-05-10T02:02:50;25.33;;;17.00;;
46318;SDS011;32042;50.916;2.926;2023-05-10T02:05:17;31.40;;;17.00;;
46318;SDS011;32042;50.916;2.926;2023-05-10T02:07:44;27.47;;;17.70;;
46318;SDS011;32042;50.916;2.926;2023-05-10T02:10:10;32.17;;;19.83;;
46318;SDS011;32042;50.916;2.926;2023-05-10T02:12:39;37.33;;;21.50;;
46318;SDS011;32042;50.916;2.926;2023-05-10T02:15:08;32.73;;;20.13;;
46318;SDS011;32042;50.916;2.926;2023-05-10T02:17:35;35.03;;;22.17;;
46318;SDS011;32042;50.916;2.926;2023-05-10T02:20:03;41.37;;;22.20;;
46318;SDS011;32042;50.916;2.926;2023-05-10T02:22:31;45.87;;;25.97;;
46318;SDS011;32042;50.916;2.926;2023-05-10T02:24:58;41.23;;;24.93;;
46318;SDS011;32042;50.916;2.926;2023-05-10T02:27:25;38.77;;;22.20;;
46318;SDS011;32042;50.916;2.926;2023-05-10T02:29:53;43.67;;;24.87;;
46318;SDS011;32042;50.916;2.926;2023-05-10T02:32:20;42.93;;;23.93;;
46318;SDS011;32042;50.916;2.926;2023-05-10T02:34:48;42.57;;;23.70;;
46318;SDS011;32042;50.916;2.926;2023-05-10T02:37:21;40.23;;;23.33;;
46318;SDS011;32042;50.916;2.926;2023-05-10T02:39:52;37.00;;;21.83;;
46318;SDS011;32042;50.916;2.926;2023-05-10T02:42:23;39.73;;;23.20;;
46318;SDS011;32042;50.916;2.926;2023-05-10T02:44:56;35.97;;;20.73;;
46318;SDS011;32042;50.916;2.926;2023-05-10T02:47:27;37.53;;;20.23;;
46318;SDS011;32042;50.916;2.926;2023-05-10T02:49:55;35.63;;;22.37;;
46318;SDS011;32042;50.916;2.926;2023-05-10T02:52:23;39.63;;;21.33;;
46318;SDS011;32042;50.916;2.926;2023-05-10T02:54:58;34.00;;;20.03;;
46318;SDS011;32042;50.916;2.926;2023-05-10T02:57:27;32.63;;;20.00;;
46318;SDS011;32042;50.916;2.926;2023-05-10T02:59:55;37.50;;;20.37;;
46318;SDS011;32042;50.916;2.926;2023-05-10T03:02:21;37.33;;;20.40;;
46318;SDS011;32042;50.916;2.926;2023-05-10T03:04:46;36.03;;;19.07;;
46318;SDS011;32042;50.916;2.926;2023-05-10T03:07:12;38.30;;;21.77;;
46318;SDS011;32042;50.916;2.926;2023-05-10T03:09:38;36.90;;;19.00;;
46318;SDS011;32042;50.916;2.926;2023-05-10T03:12:14;35.83;;;19.90;;
46318;SDS011;32042;50.916;2.926;2023-05-10T03:14:57;39.83;;;19.87;;
46318;SDS011;32042;50.916;2.926;2023-05-10T03:18:00;38.30;;;21.10;;
46318;SDS011;32042;50.916;2.926;2023-05-10T03:20:38;44.17;;;21.77;;
46318;SDS011;32042;50.916;2.926;2023-05-10T03:23:11;35.10;;;19.33;;
46318;SDS011;32042;50.916;2.926;2023-05-10T03:25:51;44.50;;;20.50;;
46318;SDS011;32042;50.916;2.926;2023-05-10T03:28:18;46.97;;;21.47;;
46318;SDS011;32042;50.916;2.926;2023-05-10T03:30:45;45.47;;;21.53;;
46318;SDS011;32042;50.916;2.926;2023-05-10T03:33:12;43.27;;;20.97;;
46318;SDS011;32042;50.916;2.926;2023-05-10T03:35:38;48.37;;;24.33;;
46318;SDS011;32042;50.916;2.926;2023-05-10T03:38:04;50.50;;;21.93;;
46318;SDS011;32042;50.916;2.926;2023-05-10T03:40:30;62.73;;;24.50;;
46318;SDS011;32042;50.916;2.926;2023-05-10T03:43:00;49.63;;;23.33;;
46318;SDS011;32042;50.916;2.926;2023-05-10T03:45:25;47.90;;;22.00;;
46318;SDS011;32042;50.916;2.926;2023-05-10T03:47:52;47.37;;;22.23;;
46318;SDS011;32042;50.916;2.926;2023-05-10T03:50:17;48.90;;;22.97;;
46318;SDS011;32042;50.916;2.926;2023-05-10T03:52:43;51.27;;;23.50;;
46318;SDS011;32042;50.916;2.926;2023-05-10T03:55:09;51.27;;;22.73;;
46318;SDS011;32042;50.916;2.926;2023-05-10T03:57:35;54.10;;;23.63;;
46318;SDS011;32042;50.916;2.926;2023-05-10T04:00:01;46.30;;;23.43;;
46318;SDS011;32042;50.916;2.926;2023-05-10T04:02:28;51.13;;;24.63;;
46318;SDS011;32042;50.916;2.926;2023-05-10T04:04:55;46.63;;;23.00;;
46318;SDS011;32042;50.916;2.926;2023-05-10T04:07:21;58.03;;;24.50;;
46318;SDS011;32042;50.916;2.926;2023-05-10T04:09:46;49.33;;;23.17;;
46318;SDS011;32042;50.916;2.926;2023-05-10T04:12:12;56.50;;;23.47;;
46318;SDS011;32042;50.916;2.926;2023-05-10T04:14:38;55.90;;;23.87;;
46318;SDS011;32042;50.916;2.926;2023-05-10T04:17:04;49.70;;;23.93;;
46318;SDS011;32042;50.916;2.926;2023-05-10T04:19:30;47.30;;;22.93;;
46318;SDS011;32042;50.916;2.926;2023-05-10T04:21:56;40.07;;;20.53;;
46318;SDS011;32042;50.916;2.926;2023-05-10T04:24:22;40.03;;;20.77;;
46318;SDS011;32042;50.916;2.926;2023-05-10T04:26:48;42.47;;;20.67;;
46318;SDS011;32042;50.916;2.926;2023-05-10T04:29:14;31.50;;;18.93;;
46318;SDS011;32042;50.916;2.926;2023-05-10T04:31:40;32.60;;;17.27;;
46318;SDS011;32042;50.916;2.926;2023-05-10T04:34:05;33.73;;;17.10;;
46318;SDS011;32042;50.916;2.926;2023-05-10T04:36:31;37.30;;;17.87;;
46318;SDS011;32042;50.916;2.926;2023-05-10T04:39:01;33.77;;;18.40;;
46318;SDS011;32042;50.916;2.926;2023-05-10T04:41:28;43.33;;;19.30;;
46318;SDS011;32042;50.916;2.926;2023-05-10T04:43:54;38.07;;;18.87;;
46318;SDS011;32042;50.916;2.926;2023-05-10T04:46:20;40.40;;;20.00;;
46318;SDS011;32042;50.916;2.926;2023-05-10T04:48:46;33.83;;;19.03;;
46318;SDS011;32042;50.916;2.926;2023-05-10T04:51:11;34.60;;;18.87;;
46318;SDS011;32042;50.916;2.926;2023-05-10T04:53:37;32.60;;;17.93;;
46318;SDS011;32042;50.916;2.926;2023-05-10T04:56:03;26.53;;;16.00;;
46318;SDS011;32042;50.916;2.926;2023-05-10T04:58:29;30.50;;;17.40;;
46318;SDS011;32042;50.916;2.926;2023-05-10T05:00:55;30.10;;;16.93;;
46318;SDS011;32042;50.916;2.926;2023-05-10T05:03:20;26.87;;;17.20;;
46318;SDS011;32042;50.916;2.926;2023-05-10T05:05:47;27.50;;;15.80;;
46318;SDS011;32042;50.916;2.926;2023-05-10T05:08:13;29.67;;;17.37;;
46318;SDS011;32042;50.916;2.926;2023-05-10T05:10:38;32.17;;;18.27;;
46318;SDS011;32042;50.916;2.926;2023-05-10T05:13:05;31.43;;;18.13;;
46318;SDS011;32042;50.916;2.926;2023-05-10T05:15:30;30.23;;;17.80;;
46318;SDS011;32042;50.916;2.926;2023-05-10T05:17:56;30.27;;;18.00;;
46318;SDS011;32042;50.916;2.926;2023-05-10T05:20:22;32.03;;;18.80;;
46318;SDS011;32042;50.916;2.926;2023-05-10T05:22:48;28.63;;;18.53;;
46318;SDS011;32042;50.916;2.926;2023-05-10T05:25:14;32.50;;;19.43;;
46318;SDS011;32042;50.916;2.926;2023-05-10T05:27:40;28.97;;;18.83;;
46318;SDS011;32042;50.916;2.926;2023-05-10T05:30:06;30.83;;;17.57;;
46318;SDS011;32042;50.916;2.926;2023-05-10T05:32:32;25.83;;;17.83;;
46318;SDS011;32042;50.916;2.926;2023-05-10T05:34:58;31.90;;;17.40;;
46318;SDS011;32042;50.916;2.926;2023-05-10T05:37:24;35.50;;;16.80;;
46318;SDS011;32042;50.916;2.926;2023-05-10T05:39:50;31.97;;;17.87;;
46318;SDS011;32042;50.916;2.926;2023-05-10T05:42:16;32.97;;;18.37;;
46318;SDS011;32042;50.916;2.926;2023-05-10T05:44:43;29.17;;;17.67;;
46318;SDS011;32042;50.916;2.926;2023-05-10T05:47:09;31.37;;;18.83;;
46318;SDS011;32042;50.916;2.926;2023-05-10T05:49:35;28.93;;;18.13;;
46318;SDS011;32042;50.916;2.926;2023-05-10T05:52:01;33.57;;;20.07;;
46318;SDS011;32042;50.916;2.926;2023-05-10T05:54:28;37.13;;;19.43;;
46318;SDS011;32042;50.916;2.926;2023-05-10T05:56:55;36.33;;;18.97;;
46318;SDS011;32042;50.916;2.926;2023-05-10T05:59:24;30.50;;;19.20;;
46318;SDS011;32042;50.916;2.926;2023-05-10T06:01:50;32.40;;;18.67;;
46318;SDS011;32042;50.916;2.926;2023-05-10T06:04:16;26.50;;;19.57;;
46318;SDS011;32042;50.916;2.926;2023-05-10T06:06:42;29.97;;;19.20;;
46318;SDS011;32042;50.916;2.926;2023-05-10T06:09:08;24.57;;;17.70;;
46318;SDS011;32042;50.916;2.926;2023-05-10T06:11:35;22.77;;;17.80;;
46318;SDS011;32042;50.916;2.926;2023-05-10T06:14:01;29.33;;;18.53;;
46318;SDS011;32042;50.916;2.926;2023-05-10T06:16:29;34.30;;;18.07;;
46318;SDS011;32042;50.916;2.926;2023-05-10T06:18:55;31.90;;;18.30;;
46318;SDS011;32042;50.916;2.926;2023-05-10T06:21:21;32.90;;;19.10;;
46318;SDS011;32042;50.916;2.926;2023-05-10T06:23:47;27.53;;;18.63;;
46318;SDS011;32042;50.916;2.926;2023-05-10T06:26:13;31.07;;;19.30;;
46318;SDS011;32042;50.916;2.926;2023-05-10T06:28:39;28.33;;;17.80;;
46318;SDS011;32042;50.916;2.926;2023-05-10T06:31:05;29.00;;;17.77;;
46318;SDS011;32042;50.916;2.926;2023-05-10T06:33:31;30.17;;;18.23;;
46318;SDS011;32042;50.916;2.926;2023-05-10T06:35:57;31.70;;;18.20;;
46318;SDS011;32042;50.916;2.926;2023-05-10T06:38:23;27.93;;;18.93;;
46318;SDS011;32042;50.916;2.926;2023-05-10T06:40:49;27.30;;;17.07;;
46318;SDS011;32042;50.916;2.926;2023-05-10T06:43:15;23.03;;;17.63;;
46318;SDS011;32042;50.916;2.926;2023-05-10T06:45:41;23.07;;;16.93;;
46318;SDS011;32042;50.916;2.926;2023-05-10T06:48:07;28.80;;;18.03;;
46318;SDS011;32042;50.916;2.926;2023-05-10T06:50:33;26.70;;;17.03;;
46318;SDS011;32042;50.916;2.926;2023-05-10T06:52:59;24.03;;;17.40;;
46318;SDS011;32042;50.916;2.926;2023-05-10T06:55:25;29.27;;;16.50;;
46318;SDS011;32042;50.916;2.926;2023-05-10T06:57:51;27.00;;;16.97;;
46318;SDS011;32042;50.916;2.926;2023-05-10T07:00:18;25.03;;;16.90;;
46318;SDS011;32042;50.916;2.926;2023-05-10T07:02:44;31.53;;;24.33;;
46318;SDS011;32042;50.916;2.926;2023-05-10T07:05:10;37.50;;;22.97;;
46318;SDS011;32042;50.916;2.926;2023-05-10T07:07:36;30.87;;;22.30;;
46318;SDS011;32042;50.916;2.926;2023-05-10T07:10:02;27.17;;;19.83;;
46318;SDS011;32042;50.916;2.926;2023-05-10T07:12:28;29.37;;;20.60;;
46318;SDS011;32042;50.916;2.926;2023-05-10T07:14:54;25.63;;;20.23;;
46318;SDS011;32042;50.916;2.926;2023-05-10T07:17:20;23.63;;;18.43;;
46318;SDS011;32042;50.916;2.926;2023-05-10T07:19:45;26.50;;;20.00;;
46318;SDS011;32042;50.916;2.926;2023-05-10T07:22:11;24.33;;;17.80;;
46318;SDS011;32042;50.916;2.926;2023-05-10T07:24:37;20.10;;;16.63;;
46318;SDS011;32042;50.916;2.926;2023-05-10T07:27:04;17.70;;;15.77;;
46318;SDS011;32042;50.916;2.926;2023-05-10T07:29:30;25.33;;;19.17;;
46318;SDS011;32042;50.916;2.926;2023-05-10T07:31:55;28.17;;;17.90;;
46318;SDS011;32042;50.916;2.926;2023-05-10T07:34:21;23.60;;;17.33;;
46318;SDS011;32042;50.916;2.926;2023-05-10T07:36:47;21.53;;;18.30;;
46318;SDS011;32042;50.916;2.926;2023-05-10T07:39:13;22.33;;;19.77;;
46318;SDS011;32042;50.916;2.926;2023-05-10T07:41:38;25.70;;;20.17;;
46318;SDS011;32042;50.916;2.926;2023-05-10T07:44:04;25.37;;;19.20;;
46318;SDS011;32042;50.916;2.926;2023-05-10T07:46:31;22.20;;;18.93;;
46318;SDS011;32042;50.916;2.926;2023-05-10T07:49:04;22.30;;;17.43;;
46318;SDS011;32042;50.916;2.926;2023-05-10T07:51:30;20.93;;;16.47;;
46318;SDS011;32042;50.916;2.926;2023-05-10T07:53:56;19.47;;;17.10;;
46318;SDS011;32042;50.916;2.926;2023-05-10T07:56:26;19.97;;;17.83;;
46318;SDS011;32042;50.916;2.926;2023-05-10T07:58:54;21.07;;;17.63;;
46318;SDS011;32042;50.916;2.926;2023-05-10T08:01:21;18.73;;;16.73;;
46318;SDS011;32042;50.916;2.926;2023-05-10T08:03:47;21.73;;;17.30;;
46318;SDS011;32042;50.916;2.926;2023-05-10T08:06:14;21.20;;;19.00;;
46318;SDS011;32042;50.916;2.926;2023-05-10T08:08:40;21.43;;;18.97;;
46318;SDS011;32042;50.916;2.926;2023-05-10T08:11:06;19.57;;;17.50;;
46318;SDS011;32042;50.916;2.926;2023-05-10T08:13:32;20.90;;;18.70;;
46318;SDS011;32042;50.916;2.926;2023-05-10T08:15:58;24.37;;;18.87;;
46318;SDS011;32042;50.916;2.926;2023-05-10T08:18:24;17.97;;;16.27;;
46318;SDS011;32042;50.916;2.926;2023-05-10T08:20:49;20.83;;;18.70;;
46318;SDS011;32042;50.916;2.926;2023-05-10T08:23:15;20.60;;;18.47;;
46318;SDS011;32042;50.916;2.926;2023-05-10T08:25:41;21.00;;;18.87;;
46318;SDS011;32042;50.916;2.926;2023-05-10T08:28:06;22.27;;;19.23;;
46318;SDS011;32042;50.916;2.926;2023-05-10T08:30:32;22.17;;;19.23;;
46318;SDS011;32042;50.916;2.926;2023-05-10T08:32:58;21.27;;;19.10;;
46318;SDS011;32042;50.916;2.926;2023-05-10T08:35:23;25.57;;;21.53;;
46318;SDS011;32042;50.916;2.926;2023-05-10T08:37:50;27.93;;;23.83;;
46318;SDS011;32042;50.916;2.926;2023-05-10T08:40:16;34.90;;;27.53;;
46318;SDS011;32042;50.916;2.926;2023-05-10T08:43:01;40.93;;;29.50;;
46318;SDS011;32042;50.916;2.926;2023-05-10T08:45:37;34.47;;;27.53;;
46318;SDS011;32042;50.916;2.926;2023-05-10T08:48:08;37.07;;;27.37;;
46318;SDS011;32042;50.916;2.926;2023-05-10T08:50:44;24.57;;;18.40;;
46318;SDS011;32042;50.916;2.926;2023-05-10T08:53:12;26.07;;;16.03;;
46318;SDS011;32042;50.916;2.926;2023-05-10T08:55:38;23.80;;;15.60;;
46318;SDS011;32042;50.916;2.926;2023-05-10T08:58:07;19.30;;;14.10;;
46318;SDS011;32042;50.916;2.926;2023-05-10T09:00:33;20.73;;;14.33;;
46318;SDS011;32042;50.916;2.926;2023-05-10T09:03:00;27.63;;;14.57;;
46318;SDS011;32042;50.916;2.926;2023-05-10T09:05:28;17.77;;;13.50;;
46318;SDS011;32042;50.916;2.926;2023-05-10T09:07:54;21.87;;;12.43;;
46318;SDS011;32042;50.916;2.926;2023-05-10T09:10:20;19.97;;;11.33;;
46318;SDS011;32042;50.916;2.926;2023-05-10T09:12:46;19.13;;;10.90;;
46318;SDS011;32042;50.916;2.926;2023-05-10T09:15:16;17.67;;;10.83;;
46318;SDS011;32042;50.916;2.926;2023-05-10T09:17:44;16.47;;;10.47;;
46318;SDS011;32042;50.916;2.926;2023-05-10T09:20:11;16.80;;;11.53;;
46318;SDS011;32042;50.916;2.926;2023-05-10T09:22:36;12.20;;;9.93;;
46318;SDS011;32042;50.916;2.926;2023-05-10T09:25:10;19.30;;;11.23;;
46318;SDS011;32042;50.916;2.926;2023-05-10T09:27:38;16.87;;;10.47;;
46318;SDS011;32042;50.916;2.926;2023-05-10T09:30:06;15.27;;;11.07;;
46318;SDS011;32042;50.916;2.926;2023-05-10T09:32:42;13.50;;;10.57;;
46318;SDS011;32042;50.916;2.926;2023-05-10T09:35:14;13.33;;;11.20;;
46318;SDS011;32042;50.916;2.926;2023-05-10T09:37:42;16.80;;;11.47;;
46318;SDS011;32042;50.916;2.926;2023-05-10T09:40:28;19.33;;;11.90;;
46318;SDS011;32042;50.916;2.926;2023-05-10T09:45:31;14.97;;;11.23;;
46318;SDS011;32042;50.916;2.926;2023-05-10T09:47:58;15.97;;;10.47;;
46318;SDS011;32042;50.916;2.926;2023-05-10T09:50:24;13.63;;;9.80;;
46318;SDS011;32042;50.916;2.926;2023-05-10T09:55:38;14.20;;;8.27;;
46318;SDS011;32042;50.916;2.926;2023-05-10T09:58:05;11.70;;;6.10;;
46318;SDS011;32042;50.916;2.926;2023-05-10T10:00:53;14.35;;;8.25;;
46318;SDS011;32042;50.916;2.926;2023-05-10T10:03:20;13.30;;;6.75;;
46318;SDS011;32042;50.916;2.926;2023-05-10T10:05:46;9.23;;;6.23;;
46318;SDS011;32042;50.916;2.926;2023-05-10T10:08:13;9.37;;;6.63;;
46318;SDS011;32042;50.916;2.926;2023-05-10T10:10:40;11.20;;;6.55;;
46318;SDS011;32042;50.916;2.926;2023-05-10T10:13:06;19.67;;;6.80;;
46318;SDS011;32042;50.916;2.926;2023-05-10T10:15:33;11.65;;;6.55;;
46318;SDS011;32042;50.916;2.926;2023-05-10T10:17:59;11.60;;;6.13;;
46318;SDS011;32042;50.916;2.926;2023-05-10T10:20:26;8.25;;;5.80;;
46318;SDS011;32042;50.916;2.926;2023-05-10T10:22:53;9.68;;;5.63;;
46318;SDS011;32042;50.916;2.926;2023-05-10T10:25:19;13.25;;;5.70;;
46318;SDS011;32042;50.916;2.926;2023-05-10T10:30:25;11.18;;;6.57;;
46318;SDS011;32042;50.916;2.926;2023-05-10T10:33:01;13.55;;;7.68;;
46318;SDS011;32042;50.916;2.926;2023-05-10T10:35:50;15.50;;;8.70;;
46318;SDS011;32042;50.916;2.926;2023-05-10T10:38:18;16.77;;;8.55;;
46318;SDS011;32042;50.916;2.926;2023-05-10T10:40:44;14.80;;;8.02;;
46318;SDS011;32042;50.916;2.926;2023-05-10T10:43:28;15.60;;;7.45;;
46318;SDS011;32042;50.916;2.926;2023-05-10T10:46:14;15.88;;;7.45;;
46318;SDS011;32042;50.916;2.926;2023-05-10T10:48:49;13.98;;;7.13;;
46318;SDS011;32042;50.916;2.926;2023-05-10T10:51:36;11.73;;;6.20;;
46318;SDS011;32042;50.916;2.926;2023-05-10T10:54:12;13.30;;;6.25;;
46318;SDS011;32042;50.916;2.926;2023-05-10T10:56:38;10.98;;;6.95;;
46318;SDS011;32042;50.916;2.926;2023-05-10T10:59:03;10.90;;;6.18;;
46318;SDS011;32042;50.916;2.926;2023-05-10T11:01:35;15.40;;;8.40;;
46318;SDS011;32042;50.916;2.926;2023-05-10T11:06:30;9.98;;;4.47;;
46318;SDS011;32042;50.916;2.926;2023-05-10T11:08:59;12.02;;;5.30;;
46318;SDS011;32042;50.916;2.926;2023-05-10T11:11:32;10.63;;;6.25;;
46318;SDS011;32042;50.916;2.926;2023-05-10T11:14:02;9.35;;;6.32;;
46318;SDS011;32042;50.916;2.926;2023-05-10T11:16:41;10.77;;;6.45;;
46318;SDS011;32042;50.916;2.926;2023-05-10T11:19:09;11.23;;;6.38;;
46318;SDS011;32042;50.916;2.926;2023-05-10T11:21:49;8.20;;;6.05;;
46318;SDS011;32042;50.916;2.926;2023-05-10T11:24:17;8.80;;;5.05;;
46318;SDS011;32042;50.916;2.926;2023-05-10T11:26:44;9.32;;;4.60;;
46318;SDS011;32042;50.916;2.926;2023-05-10T11:29:12;12.55;;;4.95;;
46318;SDS011;32042;50.916;2.926;2023-05-10T11:31:42;8.80;;;4.05;;
46318;SDS011;32042;50.916;2.926;2023-05-10T11:34:12;9.18;;;4.65;;
46318;SDS011;32042;50.916;2.926;2023-05-10T11:36:52;11.10;;;2.95;;
46318;SDS011;32042;50.916;2.926;2023-05-10T11:39:19;4.82;;;2.55;;
46318;SDS011;32042;50.916;2.926;2023-05-10T11:41:48;3.33;;;2.03;;
46318;SDS011;32042;50.916;2.926;2023-05-10T11:44:14;6.28;;;2.53;;
46318;SDS011;32042;50.916;2.926;2023-05-10T11:46:40;7.05;;;3.30;;
46318;SDS011;32042;50.916;2.926;2023-05-10T11:49:06;5.85;;;2.80;;
46318;SDS011;32042;50.916;2.926;2023-05-10T11:51:33;4.10;;;2.67;;
46318;SDS011;32042;50.916;2.926;2023-05-10T11:54:06;6.00;;;2.95;;
46318;SDS011;32042;50.916;2.926;2023-05-10T11:56:34;6.65;;;2.80;;
46318;SDS011;32042;50.916;2.926;2023-05-10T11:59:00;5.85;;;2.97;;
46318;SDS011;32042;50.916;2.926;2023-05-10T12:01:27;5.45;;;2.47;;
46318;SDS011;32042;50.916;2.926;2023-05-10T12:03:54;5.63;;;2.47;;
46318;SDS011;32042;50.916;2.926;2023-05-10T12:06:25;4.75;;;2.42;;
46318;SDS011;32042;50.916;2.926;2023-05-10T12:08:53;5.47;;;2.47;;
46318;SDS011;32042;50.916;2.926;2023-05-10T12:11:19;6.50;;;2.15;;
46318;SDS011;32042;50.916;2.926;2023-05-10T12:13:49;4.88;;;1.50;;
46318;SDS011;32042;50.916;2.926;2023-05-10T12:16:22;2.97;;;1.33;;
46318;SDS011;32042;50.916;2.926;2023-05-10T12:18:52;3.95;;;1.80;;
46318;SDS011;32042;50.916;2.926;2023-05-10T12:21:20;4.90;;;1.85;;
46318;SDS011;32042;50.916;2.926;2023-05-10T12:23:47;6.15;;;1.73;;
46318;SDS011;32042;50.916;2.926;2023-05-10T12:26:17;6.03;;;1.75;;
46318;SDS011;32042;50.916;2.926;2023-05-10T12:28:46;9.35;;;1.80;;
46318;SDS011;32042;50.916;2.926;2023-05-10T12:31:12;5.50;;;1.85;;
46318;SDS011;32042;50.916;2.926;2023-05-10T12:33:42;5.53;;;1.70;;
46318;SDS011;32042;50.916;2.926;2023-05-10T12:36:08;3.92;;;1.55;;
46318;SDS011;32042;50.916;2.926;2023-05-10T12:38:39;3.47;;;1.33;;
46318;SDS011;32042;50.916;2.926;2023-05-10T12:41:09;4.78;;;1.70;;
46318;SDS011;32042;50.916;2.926;2023-05-10T12:43:36;3.17;;;1.27;;
46318;SDS011;32042;50.916;2.926;2023-05-10T12:46:09;6.50;;;1.45;;
46318;SDS011;32042;50.916;2.926;2023-05-10T12:48:36;6.60;;;2.70;;
46318;SDS011;32042;50.916;2.926;2023-05-10T12:51:03;12.77;;;6.40;;
46318;SDS011;32042;50.916;2.926;2023-05-10T12:53:30;2.83;;;1.17;;
46318;SDS011;32042;50.916;2.926;2023-05-10T12:55:56;5.82;;;1.85;;
46318;SDS011;32042;50.916;2.926;2023-05-10T12:58:22;9.70;;;4.43;;
46318;SDS011;32042;50.916;2.926;2023-05-10T13:00:48;4.18;;;1.52;;
46318;SDS011;32042;50.916;2.926;2023-05-10T13:03:16;5.47;;;2.63;;
46318;SDS011;32042;50.916;2.926;2023-05-10T13:05:42;1.85;;;1.10;;
46318;SDS011;32042;50.916;2.926;2023-05-10T13:08:08;5.25;;;2.28;;
46318;SDS011;32042;50.916;2.926;2023-05-10T13:10:34;3.05;;;1.60;;
46318;SDS011;32042;50.916;2.926;2023-05-10T13:13:00;5.28;;;2.95;;
46318;SDS011;32042;50.916;2.926;2023-05-10T13:15:26;4.18;;;1.83;;
46318;SDS011;32042;50.916;2.926;2023-05-10T13:17:52;6.72;;;2.55;;
46318;SDS011;32042;50.916;2.926;2023-05-10T13:20:19;5.72;;;1.92;;
46318;SDS011;32042;50.916;2.926;2023-05-10T13:22:45;5.55;;;2.92;;
46318;SDS011;32042;50.916;2.926;2023-05-10T13:25:11;3.67;;;1.17;;
46318;SDS011;32042;50.916;2.926;2023-05-10T13:27:40;4.55;;;1.20;;
46318;SDS011;32042;50.916;2.926;2023-05-10T13:30:09;4.07;;;1.10;;
46318;SDS011;32042;50.916;2.926;2023-05-10T13:32:36;6.38;;;2.10;;
46318;SDS011;32042;50.916;2.926;2023-05-10T13:35:02;2.10;;;0.85;;
46318;SDS011;32042;50.916;2.926;2023-05-10T13:37:29;3.03;;;1.30;;
46318;SDS011;32042;50.916;2.926;2023-05-10T13:39:55;2.88;;;0.93;;
46318;SDS011;32042;50.916;2.926;2023-05-10T13:42:24;2.55;;;0.95;;
46318;SDS011;32042;50.916;2.926;2023-05-10T13:44:50;3.95;;;1.38;;
46318;SDS011;32042;50.916;2.926;2023-05-10T13:47:16;4.65;;;1.90;;
46318;SDS011;32042;50.916;2.926;2023-05-10T13:49:42;4.22;;;1.85;;
46318;SDS011;32042;50.916;2.926;2023-05-10T13:52:07;5.00;;;2.22;;
46318;SDS011;32042;50.916;2.926;2023-05-10T13:54:35;6.68;;;1.80;;
46318;SDS011;32042;50.916;2.926;2023-05-10T13:57:01;4.30;;;1.27;;
46318;SDS011;32042;50.916;2.926;2023-05-10T13:59:28;5.32;;;1.20;;
46318;SDS011;32042;50.916;2.926;2023-05-10T14:01:54;6.03;;;1.75;;
46318;SDS011;32042;50.916;2.926;2023-05-10T14:04:20;5.18;;;1.50;;
46318;SDS011;32042;50.916;2.926;2023-05-10T14:06:45;3.33;;;1.35;;
46318;SDS011;32042;50.916;2.926;2023-05-10T14:09:11;4.57;;;2.20;;
46318;SDS011;32042;50.916;2.926;2023-05-10T14:11:37;5.22;;;1.98;;
46318;SDS011;32042;50.916;2.926;2023-05-10T14:14:06;4.97;;;2.22;;
46318;SDS011;32042;50.916;2.926;2023-05-10T14:16:32;4.75;;;1.83;;
46318;SDS011;32042;50.916;2.926;2023-05-10T14:18:58;5.07;;;2.00;;
46318;SDS011;32042;50.916;2.926;2023-05-10T14:21:23;4.57;;;1.70;;
46318;SDS011;32042;50.916;2.926;2023-05-10T14:23:49;3.92;;;1.67;;
46318;SDS011;32042;50.916;2.926;2023-05-10T14:26:15;6.88;;;2.95;;
46318;SDS011;32042;50.916;2.926;2023-05-10T14:28:41;4.30;;;2.78;;
46318;SDS011;32042;50.916;2.926;2023-05-10T14:31:07;5.10;;;2.55;;
46318;SDS011;32042;50.916;2.926;2023-05-10T14:33:33;10.40;;;3.55;;
46318;SDS011;32042;50.916;2.926;2023-05-10T14:35:58;10.73;;;4.85;;
46318;SDS011;32042;50.916;2.926;2023-05-10T14:38:24;28.05;;;15.90;;
46318;SDS011;32042;50.916;2.926;2023-05-10T14:40:51;5.90;;;3.13;;
46318;SDS011;32042;50.916;2.926;2023-05-10T14:43:17;7.47;;;2.78;;
46318;SDS011;32042;50.916;2.926;2023-05-10T14:45:43;47.13;;;23.70;;
46318;SDS011;32042;50.916;2.926;2023-05-10T14:48:09;7.07;;;3.85;;
46318;SDS011;32042;50.916;2.926;2023-05-10T14:50:40;4.10;;;2.55;;
46318;SDS011;32042;50.916;2.926;2023-05-10T14:53:06;15.60;;;9.88;;